< < Back
Terminal Aerodrome Forecast


Current Version              Previous Versions:   1  2  3  4  5  6  7  8  9  

Terminal Aerodrome Forecast

385
FTUS44 KHUN 300520
TAFHSV
TAF
KHSV 300520Z 3006/3106 VRB03KT P6SM SCT060 SCT120
     FM300800 VRB03KT P6SM SCT060
      TEMPO 3009/3012 4SM BR
     FM301600 24007KT P6SM BKN035
     FM310000 VRB04KT P6SM FEW035 SCT200=

Latest METAR

861
SAUS80 KWBC 300500 RRA
MTRHSV
METAR KHSV 300453Z 00000KT 10SM FEW060 SCT250 23/19 A2998 RMK AO2 SLP144
LAST T02330189


USA.gov is the U.S. government's official web portal to all federal, state and local government web resources and services.